TimeEST,TemperatureF,Dew PointF,Humidity,Sea Level PressureIn,VisibilityMPH,Wind Direction,Wind SpeedMPH,Gust SpeedMPH,PrecipitationIn,Events,Conditions,WindDirDegrees,DateUTC
12:52 AM,34.0,25.0,70,29.91,10.0,NNW,4.6,-,N/A,,Mostly Cloudy,330,2013-03-01 05:52:00
1:52 AM,33.1,24.1,70,29.90,10.0,Calm,Calm,-,N/A,,Mostly Cloudy,0,2013-03-01 06:52:00
2:52 AM,33.1,24.1,70,29.90,10.0,Calm,Calm,-,N/A,,Clear,0,2013-03-01 07:52:00
3:52 AM,33.1,24.1,70,29.89,10.0,Calm,Calm,-,N/A,,Partly Cloudy,0,2013-03-01 08:52:00
4:52 AM,30.0,24.1,79,29.91,10.0,West,3.5,-,N/A,,Clear,260,2013-03-01 09:52:00
5:52 AM,30.2,24.8,80,29.91,10.0,Calm,Calm,-,N/A,,Clear,0,2013-03-01 10:52:00
6:52 AM,28.9,25.0,85,29.93,10.0,Calm,Calm,-,N/A,,Partly Cloudy,0,2013-03-01 11:52:00
7:52 AM,34.0,28.0,79,29.93,10.0,Calm,Calm,-,N/A,,Partly Cloudy,0,2013-03-01 12:52:00
8:52 AM,39.0,28.0,65,29.95,10.0,NW,4.6,-,N/A,,Partly Cloudy,310,2013-03-01 13:52:00
9:52 AM,44.1,27.0,51,29.94,10.0,WNW,4.6,-,N/A,,Partly Cloudy,300,2013-03-01 14:52:00
10:52 AM,46.0,27.0,47,29.94,10.0,Variable,6.9,-,N/A,,Overcast,0,2013-03-01 15:52:00
11:52 AM,46.4,26.6,46,29.92,10.0,NW,11.5,18.4,N/A,,Overcast,320,2013-03-01 16:52:00
12:52 PM,46.0,26.1,46,29.91,10.0,West,6.9,-,N/A,,Overcast,270,2013-03-01 17:52:00
1:52 PM,46.0,27.0,47,29.89,10.0,NW,9.2,-,N/A,,Overcast,310,2013-03-01 18:52:00
2:52 PM,48.0,27.0,44,29.88,10.0,Variable,6.9,-,N/A,,Overcast,0,2013-03-01 19:52:00
3:52 PM,48.0,26.1,42,29.87,10.0,West,9.2,-,N/A,,Overcast,280,2013-03-01 20:52:00
4:52 PM,46.0,27.0,47,29.88,10.0,NW,9.2,-,N/A,,Overcast,320,2013-03-01 21:52:00
5:52 PM,46.0,27.0,47,29.89,10.0,NW,3.5,-,N/A,,Overcast,310,2013-03-01 22:52:00
6:52 PM,42.8,28.4,57,29.90,10.0,North,3.5,-,N/A,,Overcast,360,2013-03-01 23:52:00
7:52 PM,44.1,27.0,51,29.91,10.0,Calm,Calm,-,N/A,,Overcast,0,2013-03-02 00:52:00
8:52 PM,43.0,27.0,53,29.91,10.0,NNW,4.6,-,N/A,,Overcast,340,2013-03-02 01:52:00
9:52 PM,42.1,28.0,58,29.91,10.0,NNW,5.8,-,N/A,,Overcast,340,2013-03-02 02:52:00
10:52 PM,41.0,27.0,57,29.91,10.0,NNW,3.5,-,N/A,,Overcast,340,2013-03-02 03:52:00
11:52 PM,39.9,28.0,63,29.91,10.0,NNW,4.6,-,N/A,,Overcast,340,2013-03-02 04:52:00